Latest Weather Observations for Yanco

IDN60801

Issued at 4:05 pm EST Saturday 20 September 2014 (issued every 30 minutes, with the page automatically refreshed every 10 minutes)

About weather observations | Map of weather stations | Latest weather observations for NSW | Other Formats
Station Details ID: 074037 Name: YANCO AGRICULTURAL INSTITUTE Lat: -34.62 Lon: 146.43 Height: 164.0 m
Data from the previous 72 hours. | See also: Recent months at Yanco
Date/Time
EST
Temp
°C
App
Temp
°C
Dew
Point
Rel
Hum
%
Delta-T
°C
Wind Press
QNH
hPa
Press
MSL
hPa
Rain
since 9 am
mm
Dir
 
Spd
km/h
Gust
km/h
Spd
kts
Gust
kts
20/04:00pm 20.4 15.8 -1.4 23 9.5 SSW 13 19 7 10 - - 0.0
20/03:30pm 21.2 18.0 1.0 26 9.3 SW 7 22 4 12 - - 0.0
20/03:00pm 20.5 16.7 1.9 29 8.6 SSW 11 19 6 10 - - 0.0
20/02:30pm 20.6 16.8 1.5 28 8.8 SW 11 19 6 10 - - 0.0
20/02:00pm 20.3 17.0 2.2 30 8.4 W 9 22 5 12 - - 0.0
20/01:30pm 19.4 16.7 3.6 35 7.5 WSW 7 15 4 8 - - 0.0
20/01:00pm 18.7 15.2 3.3 36 7.3 WSW 11 24 6 13 - - 0.0
20/12:30pm 18.1 15.1 4.3 40 6.6 SSW 9 17 5 9 - - 0.0
20/12:00pm 17.3 14.7 4.3 42 6.2 SW 7 17 4 9 - - 0.0
20/11:30am 16.3 13.0 4.7 46 5.5 S 11 19 6 10 - - 0.0
20/11:00am 15.9 12.6 4.3 46 5.5 S 11 19 6 10 - - 0.0
20/10:30am 14.6 12.2 5.1 53 4.5 SSW 7 13 4 7 - - 0.0
20/10:00am 13.3 10.0 4.7 56 4.0 S 11 17 6 9 - - 0.0
20/09:30am 11.7 9.1 4.4 61 3.3 S 7 13 4 7 - - 0.0
20/09:00am 10.6 7.3 4.5 66 2.8 SSW 11 15 6 8 - - 0.0
20/08:30am 9.2 6.3 4.6 73 2.1 SSW 9 13 5 7 - - 0.0
20/08:00am 7.8 5.2 4.4 79 1.5 SW 7 13 4 7 - - 0.0
20/07:30am 6.1 4.1 4.6 90 0.7 SW 4 6 2 3 - - 0.0
20/07:00am 4.5 2.3 3.5 93 0.4 W 4 6 2 3 - - 0.0
20/06:30am 3.6 0.9 2.9 95 0.3 WSW 6 6 3 3 - - 0.0
20/06:00am 3.7 1.0 2.5 92 0.5 SW 6 7 3 4 - - 0.0
20/05:30am 4.2 1.9 3.0 92 0.5 WSW 4 6 2 3 - - 0.0
20/05:00am 3.8 0.8 2.2 89 0.6 SW 7 9 4 5 - - 0.0
20/04:30am 4.4 1.7 2.8 89 0.7 SW 6 7 3 4 - - 0.0
20/04:00am 4.2 0.9 2.4 88 0.7 SSW 9 11 5 6 - - 0.0
20/03:30am 4.6 1.7 2.6 87 0.8 SSW 7 9 4 5 - - 0.0
20/03:00am 4.5 1.7 2.0 84 1.0 SW 6 7 3 4 - - 0.0
20/02:30am 6.2 4.0 3.2 81 1.3 SW 4 6 2 3 - - 0.0
20/02:00am 6.5 3.9 3.1 79 1.4 WSW 6 9 3 5 - - 0.0
20/01:30am 6.6 4.3 2.5 75 1.7 SW 4 4 2 2 - - 0.0
20/01:00am 7.6 5.4 3.1 73 1.9 SW 4 6 2 3 - - 0.0
20/12:30am 8.1 5.9 3.2 71 2.1 SW 4 6 2 3 - - 0.0
20/12:00am 8.2 5.6 3.1 70 2.2 SSW 6 6 3 3 - - 0.0
 
Date/Time
EST
Temp
°C
App
Temp
°C
Dew
Point
Rel
Hum
%
Delta-T
°C
Wind Press
QNH
hPa
Press
MSL
hPa
Rain
since 9 am
mm
Dir
 
Spd
km/h
Gust
km/h
Spd
kts
Gust
kts
19/11:30pm 8.4 5.8 3.1 69 2.3 SSW 6 6 3 3 - - 0.0
19/11:00pm 8.3 5.7 3.4 71 2.1 SSW 6 7 3 4 - - 0.0
19/10:30pm 8.5 5.8 2.9 68 2.4 SSW 6 7 3 4 - - 0.0
19/10:00pm 9.2 7.0 3.2 66 2.6 SW 4 6 2 3 - - 0.0
19/09:30pm 9.2 6.9 3.0 65 2.7 SW 4 6 2 3 - - 0.0
19/09:00pm 9.5 6.9 3.3 65 2.7 SW 6 6 3 3 - - 0.0
19/08:30pm 9.7 7.1 3.0 63 2.9 SW 6 7 3 4 - - 0.0
19/08:00pm 9.7 6.5 2.8 62 3.0 SSW 9 11 5 6 - - 0.0
19/07:30pm 11.2 7.6 3.0 57 3.6 SSW 11 15 6 8 - - 0.0
19/07:00pm 12.5 8.2 3.2 53 4.2 SW 15 20 8 11 - - 0.0
19/06:30pm 13.3 8.5 2.8 49 4.7 SW 17 22 9 12 - - 0.0
19/06:00pm 14.3 9.9 2.5 45 5.3 SW 15 22 8 12 - - 0.0
19/05:30pm 15.9 10.4 2.0 39 6.2 SSW 20 26 11 14 - - 0.0
19/05:00pm 16.9 11.5 1.4 35 6.9 SSW 19 30 10 16 - - 0.0
19/04:30pm 18.0 12.4 -0.3 29 8.0 SW 19 28 10 15 - - 0.0
19/04:00pm 18.2 12.3 -0.6 28 8.1 S 20 26 11 14 - - 0.0
19/03:30pm 18.7 14.1 -1.2 26 8.6 SSW 13 24 7 13 - - 0.0
19/03:00pm 18.2 12.9 -0.6 28 8.1 SSW 17 28 9 15 - - 0.0
19/02:30pm 18.3 13.0 -0.5 28 8.2 S 17 22 9 12 - - 0.0
19/02:00pm 17.7 12.3 -1.0 28 8.0 SSW 17 30 9 16 - - 0.0
19/01:30pm 17.6 11.9 -0.6 29 7.8 WSW 19 26 10 14 - - 0.0
19/01:00pm 17.4 11.7 -0.8 29 7.8 S 19 28 10 15 - - 0.0
19/12:30pm 16.6 11.3 -0.6 31 7.3 S 17 26 9 14 - - 0.0
19/12:00pm 16.3 11.5 0.4 34 6.9 SSW 15 26 8 14 - - 0.0
19/11:30am 15.3 11.1 1.4 39 6.1 SW 13 19 7 10 - - 0.0
19/11:00am 14.8 11.0 1.7 41 5.8 SSW 11 17 6 9 - - 0.0
19/10:30am 13.9 9.7 1.9 44 5.3 SW 13 22 7 12 - - 0.0
19/10:00am 12.7 9.4 2.6 50 4.5 S 9 15 5 8 - - 0.0
19/09:30am 11.7 7.8 3.2 56 3.8 SSW 13 20 7 11 - - 0.0
19/09:00am 10.3 6.3 2.9 60 3.2 S 13 19 7 10 - - 0.0
19/08:30am 8.7 5.3 3.9 72 2.1 S 11 13 6 7 - - 0.0
19/08:00am 6.1 3.6 3.6 84 1.1 SSW 6 7 3 4 - - 0.0
19/07:30am 4.5 3.0 3.2 91 0.5 CALM 0 4 0 2 - - 0.0
19/07:00am 3.1 1.5 2.5 96 0.2 CALM 0 0 0 0 - - 0.0
19/06:30am 2.6 0.9 2.0 96 0.2 CALM 0 0 0 0 - - 0.0
19/06:00am 2.5 0.8 1.6 94 0.4 CALM 0 0 0 0 - - 0.0
19/05:30am 2.8 1.1 1.8 93 0.4 CALM 0 0 0 0 - - 0.0
19/05:00am 2.9 0.4 1.7 92 0.5 NNW 4 4 2 2 - - 0.0
19/04:30am 3.1 1.4 1.9 92 0.5 CALM 0 2 0 1 - - 0.0
19/04:00am 3.4 1.7 1.9 90 0.6 CALM 0 0 0 0 - - 0.0
19/03:30am 3.4 1.6 1.4 87 0.8 CALM 0 2 0 1 - - 0.0
19/03:00am 4.2 2.2 2.2 87 0.8 SSW 2 6 1 3 - - 0.0
19/02:30am 4.1 1.6 1.8 85 0.9 SSW 4 6 2 3 - - 0.0
19/02:00am 4.1 1.0 1.3 82 1.1 SSW 7 9 4 5 - - 0.0
19/01:30am 4.9 2.0 1.7 80 1.3 SSW 6 7 3 4 - - 0.0
19/01:00am 5.9 3.5 2.0 76 1.6 W 4 6 2 3 - - 0.0
19/12:30am 6.5 4.0 1.6 71 2.0 SSW 4 6 2 3 - - 0.0
19/12:00am 6.7 4.2 1.6 70 2.1 SW 4 6 2 3 - - 0.0
 
Date/Time
EST
Temp
°C
App
Temp
°C
Dew
Point
Rel
Hum
%
Delta-T
°C
Wind Press
QNH
hPa
Press
MSL
hPa
Rain
since 9 am
mm
Dir
 
Spd
km/h
Gust
km/h
Spd
kts
Gust
kts
18/11:30pm 7.0 4.5 1.5 68 2.2 S 4 4 2 2 - - 0.0
18/11:00pm 7.1 4.2 1.4 67 2.3 SSW 6 7 3 4 - - 0.0
18/10:30pm 7.5 4.6 1.6 66 2.4 SSW 6 7 3 4 - - 0.0
18/10:00pm 8.5 6.1 1.9 63 2.8 SSW 4 6 2 3 - - 0.0
18/09:30pm 8.6 6.1 1.7 62 2.9 SW 4 6 2 3 - - 0.0
18/09:00pm 9.0 6.5 1.7 60 3.1 WSW 4 4 2 2 - - 0.0
18/08:30pm 9.3 7.2 1.5 58 3.3 SSW 2 2 1 1 - - 0.0
18/08:00pm 9.9 7.4 1.3 55 3.6 SSW 4 6 2 3 - - 0.0
18/07:30pm 9.9 6.7 1.0 54 3.7 S 7 9 4 5 - - 0.0
18/07:00pm 10.3 6.8 1.2 53 3.8 S 9 11 5 6 - - 0.0
18/06:30pm 10.7 6.8 1.0 51 4.1 S 11 15 6 8 - - 0.0
18/06:00pm 12.7 7.7 1.1 45 5.0 S 17 22 9 12 - - 0.0
18/05:30pm 13.7 8.3 1.0 42 5.5 SSW 19 26 10 14 - - 0.0
18/05:00pm 14.4 9.0 1.0 40 5.8 SSW 19 26 10 14 - - 0.0
18/04:30pm 14.9 9.2 0.7 38 6.1 SW 20 28 11 15 - - 0.0
18/04:00pm 15.7 10.2 0.7 36 6.5 SW 19 33 10 18 - - 0.0
18/03:30pm 15.9 9.8 0.1 34 6.8 WSW 22 32 12 17 - - 0.0
18/03:00pm 16.3 9.8 0.4 34 6.9 SSW 24 33 13 18 - - 0.0
18/02:30pm 16.4 10.9 1.7 37 6.6 SSW 20 28 11 15 - - 0.0
18/02:00pm 16.3 10.3 1.2 36 6.7 WSW 22 39 12 21 - - 0.0
18/01:30pm 16.3 10.6 0.8 35 6.8 W 20 28 11 15 - - 0.0
18/01:00pm 15.9 9.6 1.6 38 6.4 SW 24 33 13 18 - - 0.0
18/12:30pm 14.3 8.3 1.2 41 5.7 WSW 22 33 12 18 - - 0.0
18/12:00pm 15.8 10.7 3.3 43 5.8 SSW 19 32 10 17 - - 0.0
18/11:30am 14.4 9.2 2.6 45 5.3 SW 19 30 10 16 - - 0.0
18/11:00am 15.0 10.0 3.5 46 5.3 SSW 19 24 10 13 - - 0.0
18/10:30am 12.6 8.3 3.3 53 4.2 SSW 15 20 8 11 - - 0.0
18/10:00am 12.8 7.6 3.5 53 4.2 SSW 20 32 11 17 - - 0.0
18/09:30am 11.8 6.7 3.1 55 3.9 SSW 19 24 10 13 - - 0.0
18/09:00am 10.4 5.8 3.7 63 3.0 SW 17 26 9 14 - - 0.0
18/08:30am 9.4 4.8 3.6 67 2.5 WSW 17 26 9 14 - - 0.0
18/08:00am 7.5 3.6 3.6 76 1.7 SW 13 19 7 10 - - 0.0
18/07:30am 5.6 2.0 3.1 84 1.0 SW 11 17 6 9 - - 0.0
18/07:00am 4.0 1.3 2.4 89 0.6 WSW 6 9 3 5 - - 0.0
18/06:30am 3.1 0.2 1.6 90 0.6 SW 6 9 3 5 - - 0.0
18/06:00am 3.3 0.3 1.7 89 0.6 WSW 7 11 4 6 - - 0.0
18/05:30am 3.3 0.8 1.7 89 0.6 WSW 4 9 2 5 - - 0.0
18/05:00am 3.1 0.2 1.3 88 0.7 SW 6 7 3 4 - - 0.0
18/04:30am 3.4 0.9 1.8 89 0.6 WSW 4 6 2 3 - - 0.0
18/04:00am 3.2 0.1 1.6 89 0.6 SW 7 11 4 6 - - 0.0
18/03:30am 3.6 0.6 1.8 88 0.7 SW 7 9 4 5 - - 0.0
18/03:00am 3.6 0.2 1.8 88 0.7 SW 9 11 5 6 - - 0.0
18/02:30am 3.5 0.0 1.5 87 0.8 SW 9 11 5 6 - - 0.0
18/02:00am 4.0 1.0 1.7 85 0.9 SW 7 9 4 5 - - 0.0
18/01:30am 4.2 1.1 1.6 83 1.0 SW 7 11 4 6 - - 0.0
18/01:00am 4.9 1.8 1.6 79 1.3 SW 7 9 4 5 - - 0.0
18/12:30am 5.6 2.6 1.7 76 1.6 WSW 7 7 4 4 - - 0.0
18/12:00am 6.8 3.4 1.9 71 2.0 SW 9 11 5 6 - - 0.0
 
Date/Time
EST
Temp
°C
App
Temp
°C
Dew
Point
Rel
Hum
%
Delta-T
°C
Wind Press
QNH
hPa
Press
MSL
hPa
Rain
since 9 am
mm
Dir
 
Spd
km/h
Gust
km/h
Spd
kts
Gust
kts
17/11:30pm 8.4 4.3 2.2 65 2.6 SSW 13 19 7 10 - - 0.0
17/11:00pm 8.5 3.8 1.0 59 3.1 SW 15 20 8 11 - - 0.0
17/10:30pm 8.4 4.0 0.6 58 3.2 SW 13 17 7 9 - - 0.0
17/10:00pm 9.5 4.8 0.9 55 3.5 SW 15 22 8 12 - - 0.0
17/09:30pm 9.2 5.3 1.1 57 3.3 WSW 11 15 6 8 - - 0.0
17/09:00pm 10.5 5.9 1.3 53 3.9 WSW 15 20 8 11 - - 0.0
17/08:30pm 10.4 6.2 1.5 54 3.8 WSW 13 17 7 9 - - 0.0
17/08:00pm 11.4 7.5 1.1 49 4.3 WSW 11 17 6 9 - - 0.0
17/07:30pm 11.8 7.5 0.9 47 4.6 SW 13 19 7 10 - - 0.0
17/07:00pm 12.4 8.1 1.1 46 4.8 WSW 13 17 7 9 - - 0.0
17/06:30pm 13.9 8.8 0.9 41 5.6 WSW 17 26 9 14 - - 0.0
17/06:00pm 14.6 9.5 0.8 39 6.0 WSW 17 24 9 13 - - 0.0
17/05:30pm 15.2 9.6 1.0 38 6.2 WSW 20 28 11 15 - - 0.0
17/05:00pm 16.2 9.8 1.1 36 6.7 WSW 24 35 13 19 - - 0.0
17/04:30pm 18.3 13.1 2.2 34 7.4 WSW 19 28 10 15 - - 0.0

Other Formats:

Comma delimited format used in spreadsheet applications
http://www.bom.gov.au/fwo/IDN60801/IDN60801.95705.axf

JavaScript Object Notation format (JSON) in row-major order
http://www.bom.gov.au/fwo/IDN60801/IDN60801.95705.json